Manitou, Kentucky
Current Conditions -  °F | °C
As of 4:15 AM on Sunday 25 Jan 2015 (Local Time) from K2I0 Reporting Station
Clear Clear  
Wind Chill: 37°   Ceiling: Unl
Heat Index: 43°   Visibility: 10mi
Dew Point: 34°   Wind: 10mph
Humidity: 70%   Direction: 210°SSW
Pressure: 29.73"   Gusts: NA
Location:  37.37°N, 87.58°W
Report Text: K2I0 251015Z AUTO 21009KT 10SM CLR 06/01 A2973 RMK AO2 T00620010
Loading
Personal Weather Stations






























Interactive Weather Map New forecast layout! Learn more

10-Day Weather Forecast

Advertisements
Track Severe Weather on mobile